Weather observations for the past three days for
Tyndall Air Force Base
Metric (Imperial)
Date Time (cdt) Wind (kph) Vis. (km) Weather Sky Cond. Temperature (ºC) Relative Humidity Wind Chill (°C) Heat Index (°C) Pressure Precipitation (cm)
Air Dwpt 6 hour altimeter (cm) sea level (mb) 1 hr 3 hr 6 hr
Max. Min.
05 23:55 S 15 16.09 Fair CLR 22.2 20.8 92% 76.1 1014.8
05 22:55 S 11 16.09 Fair CLR 21.6 20.4 93% 76.15 1015.5
05 21:55 S 13 16.09 Fair CLR 22.7 20.9 90% 76.12 1015.2
05 20:55 S 15 16.09 Fair CLR 22.8 20.7 88% 76.12 1015.2
05 19:55 S 15 16.09 Fair CLR 22.9 20.4 86% 76.07 1014.5
05 18:55 S 24 16.09 Fair CLR 23.6 20.5 27.1 23.6 83% 76.07 1014.5
05 17:55 S 26 16.09 Fair CLR 24.4 20.1 77% 25 76.07 1014.5
05 16:55 S 30 16.09 Fair CLR 25.4 19 68% 26 76.07 1014.5
05 15:55 S 31 16.09 Fair CLR 25.9 18.8 65% 27 76.07 1014.5
05 14:55 S 24 16.09 Fair CLR 26.3 15.3 51% 27 76.12 1015.2
05 13:55 S 24 16.09 A Few Clouds FEW190 26.9 13.2 43% 27 76.17 1015.9
05 12:55 S 20 16.09 Partly Cloudy SCT042 SCT200 26.4 16 26.4 17.2 53% 27 76.17 1015.9
05 11:55 S 22 16.09 Partly Cloudy FEW100 SCT190 26.3 15.6 52% 27 76.2 1016.2
05 10:55 S 17 16.09 A Few Clouds FEW200 25.6 13.1 46% 26 76.2 1016.2
05 09:55 SE 11 16.09 A Few Clouds FEW200 23.7 14.4 56% 76.2 1016.2
05 08:55 SE 15 16.09 Fair CLR 21.4 14.5 65% 76.17 1015.9
05 07:55 E 7 16.09 Partly Cloudy FEW039 SCT200 18.3 15 81% 76.17 1015.9
05 06:55 E 7 16.09 Partly Cloudy SCT042 17.1 14.5 17.1 14.1 85% 76.15 1015.5
05 05:55 E 7 16.09 A Few Clouds FEW040 15.5 13.7 89% 76.1 1014.8
05 04:55 E 11 16.09 A Few Clouds FEW034 16 14.4 90% 76.1 1014.8
05 03:55 E 6 16.09 Fair CLR 14.5 13 91% 76.05 1014.2
05 02:55 E 6 16.09 Fair CLR 14.1 12.8 92% 76.02 1013.8
05 01:55 E 7 16.09 Fair CLR 14.6 13 90% 76.05 1014.2
05 00:55 Calm 16.09 Fair CLR 15.2 13 22.3 15 87% 76.07 1014.5
04 23:55 Calm 16.09 Fair CLR 15 12.5 85% 76.1 1014.8
04 22:55 W 6 16.09 Fair CLR 16.1 13.2 83% 76.12 1015.2
04 21:55 W 6 16.09 Fair CLR 20 13.2 65% 76.15 1015.5
04 20:55 SW 9 16.09 Fair CLR 20.5 13.2 63% 76.15 1015.5
04 19:55 SW 11 16.09 Fair CLR 20.9 13.3 62% 76.17 1015.9
04 18:55 SW 13 16.09 Fair CLR 22.4 11.8 24.8 22.4 51% 76.15 1015.5
04 17:55 SW 19 16.09 Fair CLR 23.4 9.4 41% 76.15 1015.5
04 16:55 SW 20 16.09 Fair CLR 23.8 10.5 43% 76.15 1015.5
04 15:55 SW 22 16.09 Fair CLR 24 9.2 39% 25 76.15 1015.5
04 14:55 SW 22 16.09 Fair CLR 24.4 7.9 35% 25 76.17 1015.9
04 13:55 SW 19 16.09 A Few Clouds FEW190 24.7 6.4 31% 25 76.23 1016.5
04 12:55 SW 20 16.09 A Few Clouds FEW180 24.5 8 24.8 15.9 35% 25 76.25 1016.9
04 11:55 Calm 16.09 A Few Clouds FEW200 24.1 3.9 27% 25 76.3 1017.6
04 10:55 E 11 16.09 Fair CLR 23.9 5.3 30% 25 76.35 1018.2
04 09:55 E 7 16.09 Fair CLR 22.5 7.5 38% 76.35 1018.2
04 08:55 E 13 16.09 A Few Clouds FEW250 20.5 7.8 44% 76.35 1018.2
04 07:55 NE 9 16.09 Fair CLR 18.4 8.1 51% 76.33 1017.9
04 06:55 NE 6 16.09 Fair CLR 15.8 8.8 16.2 13.2 63% 76.3 1017.6
04 05:55 NE 7 16.09 Fair CLR 14.8 7.6 62% 76.3 1017.6
04 04:55 NE 7 16.09 Fair CLR 14.2 9.8 75% 76.28 1017.2
04 03:55 N 6 16.09 Fair CLR 14.1 11.6 85% 76.3 1017.6
04 02:55 N 7 16.09 Fair CLR 14.2 11.7 85% 76.3 1017.6
04 01:55 N 6 16.09 Fair CLR 14.4 12.1 86% 76.33 1017.9
04 00:55 NE 6 16.09 Fair CLR 15 12.3 21.7 14.8 84% 76.38 1018.6
03 23:55 N 6 16.09 Fair CLR 15 11.9 82% 76.35 1018.2
03 21:55 NW 9 16.09 Fair CLR 17 11.9 72% 76.35 1018.2
03 20:55 NW 7 16.09 Fair CLR 18.4 11 62% 76.33 1017.9
03 19:55 NW 13 16.09 Fair CLR 18.7 11 61% 76.28 1017.2
03 18:55 NW 22 16.09 Fair CLR 21.8 9.3 25 21.8 45% 76.25 1016.9
03 17:55 NW 20 16.09 Fair CLR 22.8 9.2 42% 76.25 1016.9
03 16:55 W 20 16.09 Fair CLR 23.3 9.3 41% 76.28 1017.2
03 15:55 W 22 16.09 Fair CLR 24 8.8 38% 25 76.3 1017.6
03 14:55 N 22 16.09 Fair CLR 24.9 4.6 27% 25 76.33 1017.9
03 13:55 N 11 16.09 Fair CLR 24.5 4.3 27% 25 76.4 1018.9
03 12:55 N 13 16.09 A Few Clouds FEW180 23.8 4.2 23.8 15 28% 76.43 1019.3
03 11:55 NE 15 16.09 Fair CLR 22.9 2.4 26% 76.5 1020.3
03 10:55 N 17 16.09 Fair CLR 22.3 2.9 28% 76.56 1020.9
03 09:55 NE 13 16.09 Fair CLR 21.5 4.5 33% 76.56 1020.9
03 08:55 N 19 16.09 Fair CLR 19 6.5 44% 76.48 1019.9
03 07:55 N 17 16.09 Fair CLR 16.9 7.3 53% 76.48 1019.9
03 06:55 N 15 16.09 Fair CLR 14.9 7 16.2 13.9 59% 76.45 1019.6
03 05:55 N 11 16.09 Fair CLR 14.2 7.3 63% 76.4 1018.9
03 04:55 N 9 16.09 Fair CLR 14.7 7.3 61% 76.35 1018.2
03 03:55 N 9 16.09 Fair CLR 15.3 6.6 56% 76.35 1018.2
03 02:55 N 11 16.09 Fair CLR 15.5 5.7 52% 76.35 1018.2
03 01:55 N 13 16.09 Fair CLR 16 6.7 54% 76.33 1017.9
03 00:55 N 11 16.09 Fair CLR 16.3 7 21.4 16.3 54% 76.3 1017.6
Date Time (cdt) Wind (kph) Vis. (km) Weather Sky Cond. Air Dwpt Max. Min. Relative Humidity Wind Chill (°C) Heat Index (°C) altimeter (cm) sea level (mb) 1 hr 3 hr 6 hr
6 hour
Temperature (ºC) Pressure Precipitation (cm)